Tiempo atmosférico en la estación meteorológica de Lubia, Soria (1100 m.)



Fecha
DESCASC
Temp. máxima en grados centígrados (hora)
DESCASC
Temp. mínima en grados centígrados (hora)
DESCASC
Temp. media en grados centígrados
DESCASC
Racha de viento máxima en m/sg (hora)
DESCASC
Velocidad máxima media en intervalos de 10 minutos(hora)
DESCASC
Precipitaciones diarias en mm
DESCASC
Precipitaciones de 00:00 a 06:00 en mm
DESCASC
Precipitaciones de 06:00 a 12:00 en mm
DESCASC
Precipitaciones de 12:00 a 18:00 en mm
DESCASC
Precipitaciones de 18:00 a 24:00 en mm
DESCASC
22-04-2019 14.1 (18:30) 2.9 (07:00) 8.5 6.11 (13:20) 3.89 (13:20) 0.2 0.2 0 0 0
21-04-2019 8 (17:10) 4.3 (07:00) 6.2 8.33 (13:00) 5 (14:10) 0.6 0 0 0 0.6
20-04-2019 16.1 (16:50) 6.1 (04:00) 11.1 13.33 (11:20) 9.17 (11:10) 0 0 0 0 0
19-04-2019 11.5 (18:20) 5.7 (01:30) 8.6 16.39 (17:10) 11.67 (17:10) 8.6 4 4.4 0.2 0
18-04-2019 11.6 (00:00) 6.6 (00:00) 9.1 10 (09:10) 6.39 (13:20) 38.2 0.2 15 7.6 15.4
17-04-2019 19.8 (15:50) 6.4 (00:00) 13.1 10.28 (17:50) 7.22 (17:50) 0 0 0 0 0
16-04-2019 17.8 (17:10) 2.6 (00:00) 10.2 7.5 (14:00) 4.72 (01:20) 0 0 0 0 0
15-04-2019 19.4 (16:20) 7 (00:00) 13.2 13.89 (19:10) 9.17 (19:40) 0.2 0 0 0 0.2
14-04-2019 19.2 (18:20) 6.3 (00:00) 12.8 11.94 (09:00) 8.06 (09:00) 0 0 0 0 0
13-04-2019 18.7 (16:00) -1.4 (-00:0) 8.7 8.33 (19:00) 5.28 (18:20) 0 0 0 0 0
12-04-2019 15.1 (17:00) -1 (-00:0) 7.1 8.61 (15:30) 4.72 (15:40) 0 0 0 0 0
11-04-2019 11.3 (16:30) -2 (-00:0) 4.7 8.89 (18:20) 5.56 (18:00) 0 0 0 0 0
10-04-2019 11.1 (16:40) 1.6 (00:00) 6.4 11.39 (08:10) 6.94 (10:50) 2.6 2.2 0.4 0 0
09-04-2019 8.5 (15:10) 2.2 (00:00) 5.4 13.33 (15:20) 8.61 (15:20) 3.6 0 0 1 2.6
08-04-2019 12.4 (16:20) 2.6 (00:00) 7.5 13.06 (15:20) 8.33 (16:10) 4.2 2.8 1 0.4 0
07-04-2019 9 (17:50) 0.5 (00:00) 4.8 13.89 (10:40) 8.61 (11:10) 0 0 0 0 0
06-04-2019 -- (--) -- (--) -- 15 (16:10) 7.78 (09:50) 7.6 0 0.6 4.2 2.8
05-04-2019 5.4 (16:20) -0.2 (00:00) 2.6 11.67 (04:50) 6.39 (05:00) 4 0 1.6 1.4 1
04-04-2019 11.5 (18:00) -4.6 (-00:0) 3.5 11.11 (14:50) 6.39 (12:20) 0 0 0 0 0
03-04-2019 9.8 (17:00) -2.9 (23:40) 3.5 14.17 (14:00) 8.61 (17:30) 0.2 0 0 0 0.2
02-04-2019 14.4 (15:00) 2.2 (00:00) 8.3 8.06 (18:00) 4.72 (17:40) 1.6 0 0 0 1.6
01-04-2019 13.7 (18:20) 3.3 (00:00) 8.5 7.5 (16:10) 4.17 (19:50) 2.4 0 0 2.2 0.2
31-03-2019 12.2 (12:20) 1.5 (00:00) 6.8 10.83 (12:40) 6.11 (12:00) 4 0 0 0.4 3.6
30-03-2019 15.6 (16:30) -1.1 (-00:0) 7.3 9.17 (12:50) 4.72 (12:10) 0 0 0 0 0
29-03-2019 16.7 (17:00) -1 (-00:0) 7.9 9.17 (16:10) 5.56 (16:10) 0 0 0 0 0
28-03-2019 16.5 (16:00) 0.7 (00:00) 8.6 8.61 (17:00) 4.17 (16:10) 0 0 0 0 0
27-03-2019 15.5 (16:30) -1.1 (-00:0) 7.2 9.72 (16:10) 6.11 (16:00) 0 0 0 0 0
26-03-2019 15.5 (15:20) 1 (00:00) 8.3 14.17 (00:20) 7.22 (00:20) 0 0 0 0 0
25-03-2019 14.7 (15:10) 2.8 (00:00) 8.7 12.78 (23:30) 8.06 (21:20) 0 0 0 0 0

Gráficas

Temp. máximas Temp. mínimas Temp. medias Precipitaciones Rachas de viento máximas Velocidades máximas media en intervalos de 10 minutos

Datos horarios

Fecha y hora oficial Temperatura (ºC) Velocidad del viento (km/h) Dirección del viento Racha (km/h) Dirección de racha Precipitación (mm) Presión (hPa) Tendencia (hPa) Humedad (%)
2019-04-23 23:00:00 2.7 12 Oeste 24 Oeste 0.2 -- -- 98
2019-04-23 22:00:00 2.6 18 Oeste 42 Oeste 0.2 -- -- 94
2019-04-23 21:00:00 3.3 18 Oeste 36 Oeste 0 -- -- 89
2019-04-23 20:00:00 4.9 29 Oeste 43 Sudoeste 0 -- -- 78
2019-04-23 19:00:00 8.5 20 Sudoeste 36 Sudoeste 0 -- -- 60
2019-04-23 18:00:00 8.5 16 Sudoeste 41 Sudoeste 0 -- -- 67
2019-04-23 17:00:00 7.1 21 Sudoeste 39 Sudoeste 0 -- -- 76
2019-04-23 16:00:00 8.8 18 Sudoeste 39 Sur 0 -- -- 71
2019-04-23 15:00:00 8.7 14 Sur 36 Sur 0.4 -- -- 77
2019-04-23 14:00:00 7.7 14 Sudoeste 28 Sudoeste 0.2 -- -- 88
2019-04-23 13:00:00 7.3 15 Sudoeste 31 Sudoeste 0.2 -- -- 87
2019-04-23 12:00:00 7.3 10 Sudeste 18 Sur 0 -- -- 97
2019-04-23 11:00:00 7 13 Sur 27 Sur 0.2 -- -- 97
2019-04-23 10:00:00 8.5 12 Sur 27 Sur 0 -- -- 80
2019-04-23 09:00:00 7.7 14 Sur 22 Sur 0 -- -- 87
2019-04-23 08:00:00 7 5 Sudoeste 23 Sudoeste 0 -- -- 94
2019-04-23 07:00:00 7.1 13 Sudoeste 24 Sudoeste 0 -- -- 92
2019-04-23 06:00:00 6.9 8 Sudoeste 16 Sudoeste 0 -- -- 92
2019-04-23 05:00:00 7 10 Sur 18 Sur 0 -- -- 90
2019-04-23 04:00:00 6.7 9 Sur 14 Sur 0 -- -- 91
2019-04-23 03:00:00 7.1 7 Sur 13 Sur 0 -- -- 90
2019-04-23 02:00:00 7.1 6 Sudeste 10 Sudeste 0 -- -- 89
2019-04-23 01:00:00 8.1 8 Sudeste 13 Sudeste 0 -- -- 85
2019-04-23 00:00:00 8.1 6 Sur 11 Sudeste 0 -- -- 86
2019-04-22 23:00:00 8.8 6 Sudeste 14 Oeste 0 -- -- 82
2019-04-22 22:00:00 9.2 9 Oeste 18 Oeste 0 -- -- 79
2019-04-22 21:00:00 10.4 5 Sudoeste 8 Sudoeste 0 -- -- 76
2019-04-22 20:00:00 11.6 6 Sur 14 Sudoeste 0 -- -- 68
2019-04-22 19:00:00 13.5 8 Sudoeste 19 Sudoeste 0 -- -- 61
2019-04-22 18:00:00 12.6 6 Sur 14 Sudeste 0 -- -- 61
2019-04-22 17:00:00 13.3 4 Sudoeste 17 Sudeste 0 -- -- 57
2019-04-22 16:00:00 12.3 8 Sudeste 22 Sudeste 0 -- -- 59
2019-04-22 15:00:00 11.5 12 Sudeste 19 Este 0 -- -- 62
2019-04-22 14:00:00 11.6 8 Sudeste 22 Sudeste 0 -- -- 63
2019-04-22 13:00:00 12.3 9 Sudeste 20 Este 0 -- -- 62
2019-04-22 12:00:00 12.1 10 Sudeste 22 Este 0 -- -- 61
2019-04-22 11:00:00 12.1 8 Sur 13 Sur 0 -- -- 56
2019-04-22 10:00:00 10.6 3 Norte 8 Norte 0 -- -- 72
2019-04-22 09:00:00 7.8 4 Norte 9 Noroeste 0 -- -- 83
2019-04-22 08:00:00 3.7 5 Noroeste 8 Noroeste 0 -- -- 100
2019-04-22 07:00:00 2.9 4 Noroeste 5 Noroeste 0 -- -- 100
2019-04-22 06:00:00 3.8 4 Noroeste 6 Noroeste 0 -- -- 100
2019-04-22 05:00:00 5 3 Noroeste 7 Norte 0 -- -- 100
2019-04-22 04:00:00 4.9 4 Norte 10 Norte 0 -- -- 100
2019-04-22 03:00:00 5.1 5 Norte 10 Norte 0 -- -- 100
2019-04-22 02:00:00 5.1 6 Norte 11 Norte 0 -- -- 100
2019-04-22 01:00:00 5.3 5 Nordeste 12 Nordeste 0.2 -- -- 100
2019-04-22 00:00:00 5.4 9 Nordeste 15 Este 0.4 -- -- 100
2019-04-21 23:00:00 5.7 11 Este 19 Este 0.2 -- -- 96
2019-04-21 22:00:00 6.3 12 Este 21 Este 0 -- -- 87
2019-04-21 21:00:00 6.7 9 Nordeste 18 Nordeste 0 -- -- 81
2019-04-21 20:00:00 7.2 9 Nordeste 21 Nordeste 0 -- -- 78
2019-04-21 19:00:00 7.5 13 Nordeste 24 Este 0 -- -- 74
2019-04-21 18:00:00 7.7 12 Nordeste 23 Este 0 -- -- 75
2019-04-21 17:00:00 7.8 15 Nordeste 23 Nordeste 0 -- -- 76
2019-04-21 16:00:00 7.5 15 Nordeste 23 Nordeste 0 -- -- 78
2019-04-21 15:00:00 7.1 15 Nordeste 30 Nordeste 0 -- -- 81
2019-04-21 14:00:00 7 15 Nordeste 26 Nordeste 0 -- -- 81
2019-04-21 13:00:00 6.9 18 Nordeste 30 Este 0 -- -- 83
2019-04-21 12:00:00 6.5 13 Nordeste 22 Nordeste 0 -- -- 81
2019-04-21 11:00:00 6.3 11 Nordeste 21 Nordeste 0 -- -- 85
2019-04-21 10:00:00 5.6 12 Nordeste 18 Nordeste 0 -- -- 95
2019-04-21 09:00:00 4.9 8 Norte 15 Nordeste 0 -- -- 100
2019-04-21 08:00:00 4.4 9 Este 20 Este 0 -- -- 100
2019-04-21 07:00:00 4.3 12 Nordeste 21 Este 0 -- -- 99
2019-04-21 06:00:00 4.6 12 Este 22 Este 0 -- -- 91
2019-04-21 05:00:00 4.9 14 Este 24 Este 0 -- -- 91
2019-04-21 04:00:00 5.5 10 Este 19 Sudeste 0 -- -- 88
2019-04-21 03:00:00 5.9 13 Sudeste 21 Sudeste 0 -- -- 84
2019-04-21 02:00:00 6.1 8 Sudeste 17 Este 0 -- -- 85
2019-04-21 01:00:00 6.4 12 Este 20 Este 0 -- -- 82
2019-04-21 00:00:00 6.5 16 Sudeste 25 Sudeste 0 -- -- 82
2019-04-20 23:00:00 6.9 18 Sudeste 28 Sudeste 0 -- -- 78
2019-04-20 22:00:00 7.7 16 Sudeste 39 Este 0 -- -- 71
2019-04-20 21:00:00 11 17 Este 29 Este 0 -- -- 53
2019-04-20 20:00:00 13 17 Este 31 Este 0 -- -- 49
2019-04-20 19:00:00 14.2 21 Este 39 Este 0 -- -- 45
2019-04-20 18:00:00 14.5 27 Este 44 Este 0 -- -- 41
2019-04-20 17:00:00 15.9 25 Este 41 Este 0 -- -- 42
2019-04-20 16:00:00 15.5 29 Este 44 Este 0 -- -- 45
2019-04-20 15:00:00 14.8 24 Este 44 Este 0 -- -- 46
2019-04-20 14:00:00 15 31 Este 47 Este 0 -- -- 50
2019-04-20 13:00:00 13.7 33 Este 46 Este 0 -- -- 50
2019-04-20 12:00:00 13.3 31 Este 48 Este 0 -- -- 48
2019-04-20 11:00:00 12.7 32 Este 45 Este 0 -- -- 48
2019-04-20 10:00:00 11.3 19 Este 32 Este 0 -- -- 57
2019-04-20 09:00:00 8.8 12 Este 29 Nordeste 0 -- -- 66
2019-04-20 08:00:00 7.6 14 Nordeste 25 Este 0 -- -- 68
2019-04-20 07:00:00 7.3 13 Nordeste 30 Nordeste 0 -- -- 71
2019-04-20 06:00:00 7.3 13 Nordeste 27 Nordeste 0 -- -- 74
2019-04-20 05:00:00 7.1 13 Nordeste 24 Nordeste 0 -- -- 77
2019-04-20 04:00:00 6.1 10 Nordeste 23 Este 0 -- -- 82
2019-04-20 03:00:00 7.4 17 Este 28 Nordeste 0 -- -- 75
2019-04-20 02:00:00 7.4 16 Nordeste 26 Este 0 -- -- 76
2019-04-20 01:00:00 8.3 18 Este 29 Nordeste 0 -- -- 73
2019-04-20 00:00:00 8.7 18 Este 35 Este 0 -- -- 73
2019-04-19 23:00:00 9.1 22 Este 36 Este 0 -- -- 73
2019-04-19 22:00:00 9.3 21 Este 45 Este 0 -- -- 73
2019-04-19 21:00:00 10.1 31 Este 46 Este 0 -- -- 69
2019-04-19 20:00:00 10.4 21 Este 41 Este 0 -- -- 77
2019-04-19 19:00:00 11.2 28 Este 41 Este 0 -- -- 73
2019-04-19 18:00:00 11.3 32 Este 59 Este 0 -- -- 75
2019-04-19 17:00:00 11.1 40 Este 58 Este 0 -- -- 76
2019-04-19 16:00:00 10.6 34 Este 47 Este 0.2 -- -- 79
2019-04-19 15:00:00 9.8 31 Este 45 Este 0 -- -- 90
2019-04-19 14:00:00 7.8 23 Este 41 Este 0 -- -- 100
2019-04-19 13:00:00 7 18 Este 36 Este 0 -- -- 100
2019-04-19 12:00:00 6.7 22 Este 36 Este 0.8 -- -- 100
2019-04-19 11:00:00 6.6 21 Este 31 Este 0.8 -- -- 100
2019-04-19 10:00:00 6.6 12 Este 25 Este 0.4 -- -- 100
2019-04-19 09:00:00 6.4 18 Este 28 Este 0.6 -- -- 100
2019-04-19 08:00:00 6.2 16 Este 32 Este 0.8 -- -- 100
2019-04-19 07:00:00 6.3 21 Este 35 Este 1 -- -- 100
2019-04-19 06:00:00 6.4 19 Este 28 Este 0.6 -- -- 100
2019-04-19 05:00:00 6 12 Este 19 Este 0.4 -- -- 100
2019-04-19 04:00:00 6 12 Este 23 Este 0.8 -- -- 100
2019-04-19 03:00:00 5.8 11 Este 22 Este 0.4 -- -- 100
2019-04-19 02:00:00 5.7 14 Sudeste 25 Sudeste 1.2 -- -- 100
2019-04-19 01:00:00 5.8 16 Sudeste 27 Este 0.6 -- -- 100
2019-04-19 00:00:00 6.6 15 Este 21 Este 1 -- -- 100
2019-04-18 23:00:00 6.9 11 Este 24 Este 1.8 -- -- 100
2019-04-18 22:00:00 7 14 Este 23 Este 2.4 -- -- 100
2019-04-18 21:00:00 6.8 6 Noroeste 12 Noroeste 3.4 -- -- 100
2019-04-18 20:00:00 7 7 Norte 12 Norte 3.4 -- -- 100
2019-04-18 19:00:00 7.1 5 Noroeste 9 Noroeste 3.4 -- -- 100
2019-04-18 18:00:00 7.2 3 Norte 8 Este 3.4 -- -- 100
2019-04-18 17:00:00 7.6 8 Este 15 Este 2.6 -- -- 100
2019-04-18 16:00:00 7.6 11 Este 22 Este 1.4 -- -- 98
2019-04-18 15:00:00 8 15 Este 32 Este 0 -- -- 91
2019-04-18 14:00:00 9.2 16 Este 36 Este 0 -- -- 88
2019-04-18 13:00:00 9.1 14 Este 22 Este 0.2 -- -- 95
2019-04-18 12:00:00 7.8 8 Nordeste 17 Nordeste 1 -- -- 100
2019-04-18 11:00:00 7.5 12 Este 18 Este 2.6 -- -- 100
2019-04-18 10:00:00 7.4 13 Este 36 Sur 3.6 -- -- 100
2019-04-18 09:00:00 7.8 15 Sudeste 26 Sur 4.6 -- -- 100
2019-04-18 08:00:00 8.1 16 Sur 32 Sur 1.6 -- -- 100
2019-04-18 07:00:00 8.4 7 Sudeste 20 Sudeste 1.6 -- -- 98
2019-04-18 06:00:00 9.2 7 Sudeste 19 Sur 0.2 -- -- 91
2019-04-18 05:00:00 10.7 9 Sur 24 Sudeste 0 -- -- 77
2019-04-18 04:00:00 10.9 9 Sur 13 Sur 0 -- -- 75
2019-04-18 03:00:00 11 7 Sur 14 Sudeste 0 -- -- 75
2019-04-18 02:00:00 10.8 9 Sudeste 15 Sudeste 0 -- -- 76
2019-04-18 01:00:00 10.8 6 Este 9 Este 0 -- -- 78
2019-04-18 00:00:00 11.6 5 Este 18 Sudeste 0 -- -- 73
2019-04-17 23:00:00 12.5 12 Sudeste 29 Sudeste 0 -- -- 69
2019-04-17 22:00:00 13.7 13 Sudeste 28 Este 0 -- -- 63
2019-04-17 21:00:00 14 17 Este 33 Este 0 -- -- 63
2019-04-17 20:00:00 14.9 20 Este 34 Sudeste 0 -- -- 61
2019-04-17 19:00:00 16.2 22 Sudeste 34 Este 0 -- -- 58
2019-04-17 18:00:00 16 23 Este 37 Este 0 -- -- 60
2019-04-17 17:00:00 18.3 15 Sudeste 28 Sudeste 0 -- -- 48
2019-04-17 16:00:00 19.3 17 Sudeste 30 Este 0 -- -- 43
2019-04-17 15:00:00 18.6 19 Sur 36 Sudeste 0 -- -- 45
2019-04-17 14:00:00 16.5 16 Sudeste 29 Sudeste 0 -- -- 51
2019-04-17 13:00:00 14.9 19 Sudeste 31 Sudeste 0 -- -- 55
2019-04-17 12:00:00 14.8 15 Sur 29 Sudeste 0 -- -- 54
2019-04-17 11:00:00 12.2 15 Sudeste 23 Sudeste 0 -- -- 68
2019-04-17 10:00:00 9.2 10 Este 19 Este 0 -- -- 81
2019-04-17 09:00:00 8.4 12 Sudeste 20 Sudeste 0 -- -- 83
2019-04-17 08:00:00 7.2 8 Sudeste 16 Sudeste 0 -- -- 90
2019-04-17 07:00:00 6.8 10 Sudeste 17 Sudeste 0 -- -- 92
2019-04-17 06:00:00 7.1 9 Este 19 Sudeste 0 -- -- 90
2019-04-17 05:00:00 7.4 11 Sudeste 19 Sudeste 0 -- -- 87
2019-04-17 04:00:00 8.1 11 Sudeste 20 Sudeste 0 -- -- 82
2019-04-17 03:00:00 8.9 14 Sudeste 22 Sudeste 0 -- -- 76
2019-04-17 02:00:00 8.5 12 Este 19 Este 0 -- -- 73
2019-04-17 01:00:00 8.8 13 Este 21 Este 0 -- -- 68
2019-04-17 00:00:00 9.2 14 Este 23 Este 0 -- -- 68
2019-04-16 23:00:00 9.9 13 Este 21 Sudeste 0 -- -- 67
2019-04-16 22:00:00 10.4 11 Este 17 Este 0 -- -- 62
2019-04-16 21:00:00 12.7 11 Sudeste 19 Sudeste 0 -- -- 52
2019-04-16 20:00:00 15.8 8 Sudeste 21 Sudeste 0 -- -- 45
2019-04-16 19:00:00 16.5 12 Sudeste 24 Sudeste 0 -- -- 43
2019-04-16 18:00:00 16.3 13 Este 26 Este 0 -- -- 43
2019-04-16 17:00:00 17.5 8 Sur 21 Sur 0 -- -- 38
2019-04-16 16:00:00 16.4 10 Sur 24 Sur 0 -- -- 36
2019-04-16 15:00:00 15.3 6 Sudeste 24 Sur 0 -- -- 42
2019-04-16 14:00:00 15 14 Sur 27 Sudeste 0 -- -- 44
2019-04-16 13:00:00 13.8 10 Sudoeste 19 Sur 0 -- -- 56
2019-04-16 12:00:00 11.2 3 Nordeste 9 Oeste 0 -- -- 61
2019-04-16 11:00:00 11.9 5 Noroeste 14 Noroeste 0 -- -- 66
2019-04-16 10:00:00 9.3 5 Noroeste 13 Oeste 0 -- -- 78
2019-04-16 09:00:00 7.2 5 Oeste 12 Oeste 0 -- -- 97
2019-04-16 08:00:00 5.3 4 Oeste 13 Oeste 0 -- -- 100
2019-04-16 07:00:00 5.1 5 Oeste 9 Oeste 0 -- -- 100
2019-04-16 06:00:00 4.6 5 Oeste 7 Sudoeste 0 -- -- 100
2019-04-16 05:00:00 2.9 3 Noroeste 10 Noroeste 0 -- -- 96
2019-04-16 04:00:00 4.6 5 Norte 12 Noroeste 0 -- -- 94
2019-04-16 03:00:00 5.3 7 Noroeste 17 Oeste 0 -- -- 89
2019-04-16 02:00:00 7 10 Noroeste 21 Oeste 0 -- -- 80
2019-04-16 01:00:00 7.3 12 Oeste 26 Oeste 0 -- -- 77
2019-04-16 00:00:00 8.5 14 Noroeste 28 Oeste 0 -- -- 72
2019-04-15 23:00:00 9.5 17 Noroeste 37 Oeste 0 -- -- 70
2019-04-15 22:00:00 10.2 23 Oeste 42 Oeste 0 -- -- 74
2019-04-15 21:00:00 11.6 24 Oeste 42 Oeste 0 -- -- 79
2019-04-15 20:00:00 13.4 31 Oeste 50 Sudoeste 0 -- -- 70
2019-04-15 19:00:00 18.9 26 Sudoeste 46 Sudoeste 0.2 -- -- 49
2019-04-15 18:00:00 17.9 16 Sudoeste 28 Sudoeste 0 -- -- 63
2019-04-15 17:00:00 -- 14 Sudoeste 38 Sudoeste 0 -- -- --
2019-04-15 16:00:00 18.6 26 Sudoeste 46 Sur 0 -- -- 52
2019-04-15 15:00:00 18.5 25 Sudoeste 46 Sudoeste 0 -- -- 54
2019-04-15 14:00:00 17.7 21 Sudoeste 37 Sur 0 -- -- 58
2019-04-15 13:00:00 18 20 Sur 35 Sur 0 -- -- 57
2019-04-15 12:00:00 15.9 18 Sur 31 Sur 0 -- -- 67
2019-04-15 11:00:00 15.4 14 Sur 22 Sur 0 -- -- 68
2019-04-15 10:00:00 13.2 10 Sur 18 Sur 0 -- -- 72
2019-04-15 09:00:00 10.1 2 Sur 8 Sudeste 0 -- -- 91
2019-04-15 08:00:00 7.9 5 Este 8 Este 0 -- -- 100
2019-04-15 07:00:00 7.4 2 Este 9 Nordeste 0 -- -- 100
2019-04-15 06:00:00 7.5 4 Este 8 Este 0 -- -- 100
2019-04-15 05:00:00 7.5 0 Calma 8 Nordeste 0 -- -- 100
2019-04-15 04:00:00 7.6 0 Calma 4 Nordeste 0 -- -- 98
2019-04-15 03:00:00 7.8 3 Este 9 Este 0 -- -- 96
2019-04-15 02:00:00 8.4 5 Este 7 Este 0 -- -- 92
2019-04-15 01:00:00 8 0 Calma 6 Este 0 -- -- 93
2019-04-15 00:00:00 9.3 0 Calma 9 Este 0 -- -- 84
2019-04-14 23:00:00 10.7 0 Calma 9 Nordeste 0 -- -- 77
2019-04-14 22:00:00 13.9 10 Este 18 Este 0 -- -- 67
2019-04-14 21:00:00 14.4 8 Noroeste 14 Oeste 0 -- -- 65
2019-04-14 20:00:00 16.2 10 Oeste 19 Oeste 0 -- -- 59
2019-04-14 19:00:00 18.3 13 Oeste 23 Oeste 0 -- -- 52
2019-04-14 18:00:00 19.1 14 Oeste 30 Oeste 0 -- -- 50
2019-04-14 17:00:00 18.3 20 Oeste 37 Oeste 0 -- -- 52
2019-04-14 16:00:00 17.7 21 Oeste 38 Oeste 0 -- -- 55
2019-04-14 15:00:00 17 24 Oeste 42 Oeste 0 -- -- 57
2019-04-14 14:00:00 16.4 25 Oeste 41 Oeste 0 -- -- 59
2019-04-14 13:00:00 15.6 23 Oeste 38 Oeste 0 -- -- 64
2019-04-14 12:00:00 14.4 22 Oeste 39 Oeste 0 -- -- 68
2019-04-14 11:00:00 13.5 22 Oeste 39 Oeste 0 -- -- 68
2019-04-14 10:00:00 10.7 26 Oeste 40 Oeste 0 -- -- 77
2019-04-14 09:00:00 9.2 29 Oeste 43 Oeste 0 -- -- 79
2019-04-14 08:00:00 7.5 21 Oeste 34 Oeste 0 -- -- 74
2019-04-14 07:00:00 7.7 21 Oeste 35 Oeste 0 -- -- 70
2019-04-14 06:00:00 7.4 20 Oeste 35 Oeste 0 -- -- 59
2019-04-14 05:00:00 7.8 22 Oeste 35 Oeste 0 -- -- 50
2019-04-14 04:00:00 7.4 12 Oeste 19 Sudoeste 0 -- -- 51
2019-04-14 03:00:00 7.8 13 Oeste 19 Oeste 0 -- -- 50
2019-04-14 02:00:00 7.7 11 Sudoeste 15 Sudoeste 0 -- -- 49
2019-04-14 01:00:00 6.3 5 Sudoeste 11 Oeste 0 -- -- 55
2019-04-14 00:00:00 8.4 5 Noroeste 15 Noroeste 0 -- -- 45
2019-04-13 23:00:00 8.9 11 Noroeste 23 Oeste 0 -- -- 41
2019-04-13 22:00:00 11.1 18 Oeste 26 Noroeste 0 -- -- 33
2019-04-13 21:00:00 12 14 Oeste 29 Oeste 0 -- -- 29
2019-04-13 20:00:00 15.5 18 Oeste 30 Oeste 0 -- -- 21
2019-04-13 19:00:00 17.2 17 Oeste 30 Sudoeste 0 -- -- 17
2019-04-13 18:00:00 18.1 15 Oeste 27 Sudoeste 0 -- -- 18
2019-04-13 17:00:00 18.6 12 Oeste 28 Oeste 0 -- -- 13
2019-04-13 16:00:00 18.7 10 Oeste 28 Oeste 0 -- -- 16
2019-04-13 15:00:00 17.9 8 Noroeste 23 Oeste 0 -- -- 19
2019-04-13 14:00:00 16 7 Oeste 23 Norte 0 -- -- 19
2019-04-13 13:00:00 15.6 8 Noroeste 22 Norte 0 -- -- 21
2019-04-13 12:00:00 14.4 5 Oeste 20 Oeste 0 -- -- 26
2019-04-13 11:00:00 11.8 12 Oeste 22 Oeste 0 -- -- 30
2019-04-13 10:00:00 8.1 17 Oeste 23 Oeste 0 -- -- 39
2019-04-13 09:00:00 7.1 12 Oeste 18 Oeste 0 -- -- 41
2019-04-13 08:00:00 -0.2 2 Oeste 17 Oeste 0 -- -- 58
2019-04-13 07:00:00 0.6 10 Oeste 18 Oeste 0 -- -- 50
2019-04-13 06:00:00 1.9 15 Oeste 22 Noroeste 0 -- -- 55
2019-04-13 05:00:00 2 13 Oeste 25 Oeste 0 -- -- 55
2019-04-13 04:00:00 1.7 15 Oeste 22 Oeste 0 -- -- 64
2019-04-13 03:00:00 -1.2 8 Oeste 10 Oeste 0 -- -- 65
2019-04-13 02:00:00 -0.1 7 Oeste 9 Oeste 0 -- -- 58
2019-04-13 01:00:00 0.2 2 Noroeste 12 Oeste 0 -- -- 67
2019-04-13 00:00:00 2.8 9 Noroeste 15 Noroeste 0 -- -- 55
2019-04-12 23:00:00 4.1 8 Noroeste 12 Noroeste 0 -- -- 58
2019-04-12 22:00:00 6.4 7 Norte 19 Norte 0 -- -- 51
2019-04-12 21:00:00 8.6 7 Norte 19 Norte 0 -- -- 45
2019-04-12 20:00:00 11.9 12 Nordeste 25 Norte 0 -- -- 36
2019-04-12 19:00:00 14.2 12 Norte 27 Nordeste 0 -- -- 27
2019-04-12 18:00:00 14.8 15 Nordeste 30 Norte 0 -- -- 29
2019-04-12 17:00:00 15.1 9 Nordeste 27 Norte 0 -- -- 28
2019-04-12 16:00:00 14.3 15 Norte 31 Norte 0 -- -- 29
2019-04-12 15:00:00 13.7 12 Norte 26 Nordeste 0 -- -- 30
2019-04-12 14:00:00 12.2 9 Norte 29 Norte 0 -- -- 33
2019-04-12 13:00:00 11.5 9 Nordeste 26 Nordeste 0 -- -- 43
2019-04-12 12:00:00 10.5 9 Norte 19 Noroeste 0 -- -- 40
2019-04-12 11:00:00 8.7 10 Norte 19 Oeste 0 -- -- 54
2019-04-12 10:00:00 6.9 12 Noroeste 19 Noroeste 0 -- -- 57
2019-04-12 09:00:00 5.2 9 Noroeste 15 Noroeste 0 -- -- 67
2019-04-12 08:00:00 0.7 8 Noroeste 17 Noroeste 0 -- -- 83
2019-04-12 07:00:00 -0.4 5 Oeste 15 Noroeste 0 -- -- 92
2019-04-12 06:00:00 0.5 6 Norte 13 Norte 0 -- -- 87
2019-04-12 05:00:00 -0.1 5 Norte 10 Noroeste 0 -- -- 86
2019-04-12 04:00:00 1.1 4 Norte 18 Norte 0 -- -- 79
2019-04-12 03:00:00 0 6 Oeste 16 Noroeste 0 -- -- 88
2019-04-12 02:00:00 2.2 9 Noroeste 17 Noroeste 0 -- -- 78
2019-04-12 01:00:00 3 13 Norte 21 Norte 0 -- -- 81
2019-04-12 00:00:00 2.8 3 Norte 19 Nordeste 0 -- -- 84
2019-04-11 23:00:00 3.5 9 Nordeste 15 Nordeste 0 -- -- 81
2019-04-11 22:00:00 4.1 7 Norte 26 Norte 0 -- -- 79
2019-04-11 21:00:00 5.7 17 Norte 29 Norte 0 -- -- 72
2019-04-11 20:00:00 7.5 18 Norte 29 Nordeste 0 -- -- 65
2019-04-11 19:00:00 8.5 17 Norte 32 Noroeste 0 -- -- 60
2019-04-11 18:00:00 8.9 20 Noroeste 30 Noroeste 0 -- -- 55
2019-04-11 17:00:00 9.6 11 Norte 28 Norte 0 -- -- 54
2019-04-11 16:00:00 9.5 14 Noroeste 27 Norte 0 -- -- 55
2019-04-11 15:00:00 9.9 14 Norte 27 Norte 0 -- -- 53
2019-04-11 14:00:00 9.8 12 Noroeste 26 Norte 0 -- -- 51
2019-04-11 13:00:00 8.4 16 Norte 30 Norte 0 -- -- 52
2019-04-11 12:00:00 9.6 11 Noroeste 24 Noroeste 0 -- -- 49
2019-04-11 11:00:00 8.5 10 Noroeste 24 Noroeste 0 -- -- 55
2019-04-11 10:00:00 7.2 9 Noroeste 15 Oeste 0 -- -- 64
2019-04-11 09:00:00 4.8 5 Noroeste 13 Noroeste 0 -- -- 76
2019-04-11 08:00:00 -1.2 3 Noroeste 11 Oeste 0 -- -- 100
2019-04-11 07:00:00 -1.9 5 Oeste 10 Oeste 0 -- -- 100
2019-04-11 06:00:00 -1.6 5 Oeste 8 Noroeste 0 -- -- 98
2019-04-11 05:00:00 0.6 7 Norte 13 Norte 0 -- -- 99
2019-04-11 04:00:00 -0.2 5 Noroeste 11 Noroeste 0 -- -- 94
2019-04-11 03:00:00 0 7 Noroeste 15 Norte 0 -- -- 92
2019-04-11 02:00:00 1.6 7 Noroeste 18 Noroeste 0 -- -- 88
2019-04-11 01:00:00 1.2 6 Noroeste 13 Noroeste 0 -- -- 89
2019-04-11 00:00:00 2.2 7 Norte 17 Norte 0 -- -- 87
2019-04-10 23:00:00 3.3 6 Norte 19 Nordeste 0 -- -- 79
2019-04-10 22:00:00 4 13 Nordeste 31 Norte 0 -- -- 76
2019-04-10 21:00:00 5.1 17 Nordeste 30 Norte 0 -- -- 71
2019-04-10 20:00:00 6.6 18 Norte 33 Noroeste 0 -- -- 66
2019-04-10 19:00:00 9.3 17 Norte 35 Norte 0 -- -- 57
2019-04-10 18:00:00 8.6 16 Nordeste 25 Oeste 0 -- -- 58
2019-04-10 17:00:00 8.8 17 Noroeste 33 Noroeste 0 -- -- 62
2019-04-10 16:00:00 9.5 12 Oeste 22 Oeste 0 -- -- 59
2019-04-10 15:00:00 6.7 13 Oeste 29 Norte 0 -- -- 72
2019-04-10 14:00:00 8.3 14 Noroeste 30 Oeste 0 -- -- 66
2019-04-10 13:00:00 8.5 17 Oeste 32 Oeste 0 -- -- 66
2019-04-10 12:00:00 6.6 21 Oeste 33 Oeste 0 -- -- 75
2019-04-10 11:00:00 5.3 23 Oeste 37 Oeste 0 -- -- 83
2019-04-10 10:00:00 2.9 22 Oeste 35 Oeste 0 -- -- 92
2019-04-10 09:00:00 2.7 15 Noroeste 41 Oeste 0.2 -- -- 99
2019-04-10 08:00:00 2 23 Oeste 34 Oeste 0 -- -- 100
2019-04-10 07:00:00 2.3 17 Oeste 31 Oeste 0.2 -- -- 100
2019-04-10 06:00:00 2.7 8 Oeste 18 Oeste 0.2 -- -- 100
2019-04-10 05:00:00 2.1 12 Oeste 31 Noroeste 0.4 -- -- 100
2019-04-10 04:00:00 2.6 10 Noroeste 25 Oeste 0.2 -- -- 100
2019-04-10 03:00:00 2.2 15 Oeste 23 Oeste 0 -- -- 100
2019-04-10 02:00:00 2.1 10 Noroeste 19 Noroeste 1.2 -- -- 100
2019-04-10 01:00:00 1.9 9 Oeste 16 Noroeste 0.2 -- -- 100
2019-04-10 00:00:00 2.3 13 Noroeste 41 Noroeste 2 -- -- 98
2019-04-09 23:00:00 3.3 24 Noroeste 45 Noroeste 0.6 -- -- 91
2019-04-09 22:00:00 3.7 18 Oeste 39 Oeste 0 -- -- 91
2019-04-09 21:00:00 3.7 12 Oeste 18 Oeste 0 -- -- 93
2019-04-09 20:00:00 4.4 17 Oeste 32 Oeste 0 -- -- 88
2019-04-09 19:00:00 5.4 24 Oeste 44 Noroeste 0 -- -- 86
2019-04-09 18:00:00 5 23 Oeste 41 Oeste 0.6 -- -- 95
2019-04-09 17:00:00 5.5 21 Oeste 44 Oeste 0 -- -- 84
2019-04-09 16:00:00 4.5 25 Oeste 48 Oeste 0.2 -- -- 87
2019-04-09 15:00:00 7.2 23 Oeste 39 Oeste 0.2 -- -- 79
2019-04-09 14:00:00 6.5 8 Sudoeste 29 Oeste 0 -- -- 83
2019-04-09 13:00:00 7 18 Oeste 39 Oeste 0 -- -- 71
2019-04-09 12:00:00 7.8 21 Oeste 36 Oeste 0 -- -- 64
2019-04-09 11:00:00 7.1 17 Oeste 33 Oeste 0 -- -- 73
2019-04-09 10:00:00 4.7 16 Oeste 29 Sudoeste 0 -- -- 86
2019-04-09 09:00:00 3.1 16 Oeste 24 Oeste 0 -- -- 95
2019-04-09 08:00:00 2.7 15 Oeste 25 Oeste 0 -- -- 96
2019-04-09 07:00:00 2.9 12 Oeste 28 Oeste 0 -- -- 95
2019-04-09 06:00:00 3 15 Oeste 28 Oeste 0 -- -- 95
2019-04-09 05:00:00 3.4 13 Oeste 28 Oeste 0 -- -- 93
2019-04-09 04:00:00 3.3 18 Oeste 33 Oeste 0 -- -- 92
2019-04-09 03:00:00 3.8 15 Oeste 27 Oeste 0 -- -- 91
2019-04-09 02:00:00 3.8 15 Oeste 31 Oeste 0 -- -- 88
2019-04-09 01:00:00 4.4 17 Oeste 30 Oeste 0 -- -- 87
2019-04-09 00:00:00 4.4 9 Sur 14 Sur 0 -- -- 89
2019-04-08 23:00:00 5.5 10 Sudoeste 15 Sudoeste 0 -- -- 76
2019-04-08 22:00:00 6.3 9 Oeste 14 Oeste 0 -- -- 73
2019-04-08 21:00:00 6.1 12 Oeste 26 Noroeste 0 -- -- 68
2019-04-08 20:00:00 9.4 19 Noroeste 30 Noroeste 0 -- -- 58
2019-04-08 19:00:00 12.1 16 Oeste 36 Oeste 0 -- -- 46
2019-04-08 18:00:00 11.6 20 Oeste 42 Oeste 0 -- -- 50
2019-04-08 17:00:00 11.2 26 Oeste 44 Noroeste 0 -- -- 57
2019-04-08 16:00:00 11.2 29 Oeste 47 Oeste 0.2 -- -- 60
2019-04-08 15:00:00 10.1 21 Oeste 40 Oeste 0 -- -- 78
2019-04-08 14:00:00 9.8 21 Oeste 37 Oeste 0.2 -- -- 74
2019-04-08 13:00:00 7.8 18 Oeste 31 Sudoeste 0 -- -- 87
2019-04-08 12:00:00 7.2 21 Oeste 36 Oeste 0 -- -- 96
2019-04-08 11:00:00 6.9 17 Oeste 30 Sudoeste 0.2 -- -- 100
2019-04-08 10:00:00 5.2 14 Sudoeste 24 Sudoeste 0.4 -- -- 100
2019-04-08 09:00:00 4.7 10 Sudoeste 17 Sudoeste 0.4 -- -- 100
2019-04-08 08:00:00 4.1 9 Sudoeste 18 Oeste 0 -- -- 100
2019-04-08 07:00:00 4 10 Sudoeste 18 Sudoeste 0 -- -- 100
2019-04-08 06:00:00 3.9 10 Sudoeste 23 Sudoeste 0.2 -- -- 100
2019-04-08 05:00:00 3.9 13 Sudoeste 26 Sudoeste 0.4 -- -- 100
2019-04-08 04:00:00 3.6 15 Sudoeste 26 Sudoeste 0.8 -- -- 100
2019-04-08 03:00:00 3.1 12 Sudoeste 21 Sudoeste 0.8 -- -- 100
2019-04-08 02:00:00 2.8 10 Sur 18 Sur 0.2 -- -- 100
2019-04-08 01:00:00 2.8 6 Sur 14 Sudoeste 0.4 -- -- 99
2019-04-08 00:00:00 3.3 5 Sudoeste 15 Sudoeste 0 -- -- 93
2019-04-07 23:00:00 4.2 11 Oeste 24 Oeste 0 -- -- 84
2019-04-07 22:00:00 5 15 Oeste 35 Oeste 0 -- -- 74
2019-04-07 21:00:00 6 9 Oeste 16 Oeste 0 -- -- 61
2019-04-07 20:00:00 7.1 10 Oeste 25 Sudoeste 0 -- -- 54
2019-04-07 19:00:00 8.2 12 Oeste 28 Oeste 0 -- -- 52
2019-04-07 18:00:00 8.7 14 Oeste 33 Oeste 0 -- -- 54
2019-04-07 17:00:00 8 14 Noroeste 31 Oeste 0 -- -- 58
2019-04-07 16:00:00 7.2 18 Oeste 32 Oeste 0 -- -- 59
2019-04-07 15:00:00 5.6 20 Noroeste 30 Noroeste 0 -- -- 63
2019-04-07 14:00:00 4.3 14 Noroeste 34 Oeste 0 -- -- 70
2019-04-07 13:00:00 4.3 17 Oeste 36 Oeste 0 -- -- 72
2019-04-07 12:00:00 3.9 23 Noroeste 46 Oeste 0 -- -- 74
2019-04-07 11:00:00 2.2 30 Oeste 50 Oeste 0 -- -- 81
2019-04-07 10:00:00 1.8 29 Oeste 47 Noroeste 0 -- -- 87
2019-04-07 09:00:00 0.7 26 Oeste 45 Oeste 0 -- -- 96
2019-04-07 08:00:00 0.5 22 Oeste 39 Oeste 0 -- -- 98
2019-04-07 07:00:00 0.6 20 Oeste 32 Oeste 0 -- -- 98
2019-04-07 06:00:00 0.8 18 Noroeste 33 Oeste 0 -- -- 97
2019-04-07 05:00:00 0.8 18 Oeste 41 Oeste 0 -- -- 97
2019-04-07 04:00:00 1 20 Oeste 34 Oeste 0 -- -- 96
2019-04-07 03:00:00 1.1 23 Oeste 42 Oeste 0 -- -- 94
2019-04-07 02:00:00 1.4 19 Oeste 29 Oeste 0 -- -- 98
2019-04-07 01:00:00 1.1 14 Oeste 35 Sudoeste 0 -- -- 100
2019-04-07 00:00:00 0.7 19 Oeste 36 Sudoeste 0.2 -- -- 100
2019-04-06 23:00:00 0.6 19 Oeste 38 Oeste 0.8 -- -- 100
2019-04-06 22:00:00 0.4 19 Oeste 45 Oeste 0.6 -- -- 99
2019-04-06 21:00:00 1.9 18 Oeste 33 Oeste 0.6 -- -- 95
2019-04-06 20:00:00 2.1 13 Oeste 34 Noroeste 0.4 -- -- 96
2019-04-06 19:00:00 3.6 19 Oeste 34 Oeste 0.2 -- -- 91
2019-04-06 18:00:00 2.7 21 Oeste 50 Oeste 1.4 -- -- 89
2019-04-06 17:00:00 4.5 26 Sudoeste 54 Oeste 0.4 -- -- 92
2019-04-06 16:00:00 4.8 24 Oeste 48 Oeste 26.6 -- -- 94
2019-04-06 15:00:00 -- 22 Oeste 43 Sudoeste 1 -- -- --
2019-04-06 14:00:00 4 17 Sudoeste 34 Sudoeste 0.6 -- -- 87
2019-04-06 13:00:00 -- -- -- -- -- 0.4 -- -- --
2019-04-06 12:00:00 1.4 13 Sudoeste 26 Sudoeste 0.4 -- -- 100
2019-04-06 11:00:00 0.7 12 Sudoeste 28 Sudoeste 0.2 -- -- 98
2019-04-06 10:00:00 1.3 24 Oeste 44 Oeste 0 -- -- 87
2019-04-06 09:00:00 0.6 21 Oeste 37 Sudoeste 0 -- -- 100
2019-04-06 08:00:00 0.2 17 Oeste 37 Oeste 0 -- -- 100
2019-04-06 07:00:00 0.3 21 Oeste 37 Oeste 0 -- -- 100
2019-04-06 06:00:00 0.3 21 Oeste 32 Sudoeste 0 -- -- 100
2019-04-06 05:00:00 0.4 15 Oeste 26 Noroeste 0 -- -- 100
2019-04-06 04:00:00 0.6 16 Oeste 33 Oeste 0 -- -- 100
2019-04-06 03:00:00 0.6 13 Oeste 29 Sudoeste 0 -- -- 100
2019-04-06 02:00:00 0.3 18 Oeste 30 Oeste 0 -- -- 100
2019-04-06 01:00:00 -0.1 17 Oeste 30 Oeste 0 -- -- 100
2019-04-06 00:00:00 -0.2 18 Oeste 31 Oeste 0 -- -- 100
2019-04-05 23:00:00 0.2 14 Oeste 23 Oeste 0 -- -- 100
2019-04-05 22:00:00 0.6 11 Oeste 18 Oeste 0 -- -- 100
2019-04-05 21:00:00 1 14 Oeste 23 Oeste 0 -- -- 100
2019-04-05 20:00:00 0.9 10 Oeste 16 Oeste 0 -- -- 100
2019-04-05 19:00:00 0.7 7 Oeste 14 Oeste 1 -- -- 100
2019-04-05 18:00:00 0.3 10 Oeste 22 Noroeste 1 -- -- 100
2019-04-05 17:00:00 -- 17 Oeste 34 Oeste 0.4 -- -- --
2019-04-05 16:00:00 4.9 20 Sur 32 Sur 0 -- -- 76
2019-04-05 15:00:00 4.6 12 Sur 30 Sur 0 -- -- 80
2019-04-05 14:00:00 4.4 17 Sur 30 Sur 0 -- -- 81
2019-04-05 13:00:00 4.3 19 Sur 32 Sudoeste 0 -- -- 84
2019-04-05 12:00:00 3.7 12 Sur 28 Sudoeste 0 -- -- 92
2019-04-05 11:00:00 2.9 13 Sur 28 Sudoeste 0 -- -- 95
2019-04-05 10:00:00 2.5 17 Sudoeste 32 Sudoeste 0.2 -- -- 98
2019-04-05 09:00:00 1.5 13 Sudoeste 29 Sudoeste 0.6 -- -- 100
2019-04-05 08:00:00 1.4 15 Sudoeste 33 Sudoeste 0.6 -- -- 99
2019-04-05 07:00:00 1.8 18 Sudoeste 39 Sudoeste 0.2 -- -- 94
2019-04-05 06:00:00 2.1 18 Sudoeste 39 Sudoeste 0 -- -- 87
2019-04-05 05:00:00 4 23 Sur 42 Sudoeste 0 -- -- 65
2019-04-05 04:00:00 3.3 4 Sudoeste 13 Sur 0 -- -- 62
2019-04-05 03:00:00 3.2 4 Sudoeste 13 Sudoeste 0 -- -- 51
2019-04-05 02:00:00 3 0 Calma 4 Sudeste 0 -- -- 63
2019-04-05 01:00:00 3.5 4 Sudeste 9 Sudeste 0 -- -- 52
2019-04-05 00:00:00 4.3 6 Noroeste 12 Sudoeste 0 -- -- 46
2019-04-04 23:00:00 4.8 8 Sudoeste 14 Oeste 0 -- -- 41
2019-04-04 22:00:00 5.2 6 Sur 17 Sudoeste 0 -- -- 40
2019-04-04 21:00:00 6.2 6 Sur 21 Sur 0 -- -- 38
2019-04-04 20:00:00 7.4 15 Sudoeste 33 Sudoeste 0 -- -- 35
2019-04-04 19:00:00 8.1 17 Sudoeste 39 Sudoeste 0 -- -- 35
2019-04-04 18:00:00 11.5 14 Sudoeste 36 Sudoeste 0 -- -- 33
2019-04-04 17:00:00 10.1 13 Sur 37 Sudoeste 0 -- -- 35
2019-04-04 16:00:00 9.1 15 Oeste 37 Sudoeste 0 -- -- 35
2019-04-04 15:00:00 7.9 19 Oeste 40 Oeste 0 -- -- 39
2019-04-04 14:00:00 6.2 20 Oeste 33 Oeste 0 -- -- 46
2019-04-04 13:00:00 4.6 21 Oeste 35 Oeste 0 -- -- 54
2019-04-04 12:00:00 3.4 21 Oeste 33 Oeste 0 -- -- 64
2019-04-04 11:00:00 2 21 Oeste 29 Oeste 0 -- -- 70
2019-04-04 10:00:00 -0.3 17 Oeste 28 Oeste 0 -- -- 78
2019-04-04 09:00:00 -1.8 18 Oeste 33 Oeste 0 -- -- 80
2019-04-04 08:00:00 -4.2 23 Oeste 35 Oeste 0 -- -- 90
2019-04-04 07:00:00 -4.6 14 Oeste 22 Oeste 0 -- -- 91
2019-04-04 06:00:00 -4.3 9 Oeste 22 Oeste 0 -- -- 90
2019-04-04 05:00:00 -4.4 11 Oeste 18 Oeste 0 -- -- 94
2019-04-04 04:00:00 -3.5 12 Oeste 24 Oeste 0 -- -- 92
2019-04-04 03:00:00 -2.8 14 Sudoeste 21 Sudoeste 0 -- -- 93
2019-04-04 02:00:00 -2.3 13 Oeste 19 Sudoeste 0 -- -- 98
2019-04-04 01:00:00 -3.6 8 Oeste 10 Oeste 0 -- -- 100
2019-04-04 00:00:00 -2.9 0 Calma 4 Oeste 0 -- -- 100
2019-04-03 23:00:00 -1.7 2 Oeste 11 Noroeste 0 -- -- 100
2019-04-03 22:00:00 -1.1 9 Noroeste 33 Noroeste 0.2 -- -- 98
2019-04-03 21:00:00 1.2 4 Nordeste 19 Noroeste 0 -- -- 84
2019-04-03 20:00:00 2.7 10 Noroeste 45 Oeste 0 -- -- 72
2019-04-03 19:00:00 6 20 Noroeste 44 Noroeste 0 -- -- 51
2019-04-03 18:00:00 6.1 23 Noroeste 51 Oeste 0 -- -- 51
2019-04-03 17:00:00 9.8 26 Oeste 47 Oeste 0 -- -- 40
2019-04-03 16:00:00 8.9 24 Oeste 49 Oeste 0 -- -- 42
2019-04-03 15:00:00 8.8 24 Oeste 47 Oeste 0 -- -- 56
2019-04-03 14:00:00 7.3 28 Oeste 51 Oeste 0 -- -- 62
2019-04-03 13:00:00 4.9 20 Oeste 32 Oeste 0 -- -- 81
2019-04-03 12:00:00 4.3 13 Oeste 24 Oeste 0 -- -- 91
2019-04-03 11:00:00 4 12 Oeste 23 Oeste 0 -- -- 98
2019-04-03 10:00:00 3.7 13 Oeste 23 Sudoeste 0 -- -- 98
2019-04-03 09:00:00 3.5 12 Oeste 24 Oeste 0 -- -- 100
2019-04-03 08:00:00 3.1 14 Oeste 27 Oeste 0 -- -- 100
2019-04-03 07:00:00 2.4 15 Oeste 26 Oeste 0 -- -- 95
2019-04-03 06:00:00 2.8 15 Oeste 28 Oeste 0 -- -- 91
2019-04-03 05:00:00 3.6 19 Oeste 28 Oeste 0 -- -- 87
2019-04-03 04:00:00 3.9 16 Oeste 24 Oeste 0 -- -- 92
2019-04-03 03:00:00 3.8 10 Sudoeste 14 Sudoeste 0 -- -- 100
2019-04-03 02:00:00 3.8 7 Sur 11 Sudeste 0 -- -- 100
2019-04-03 01:00:00 3.4 5 Este 8 Este 0 -- -- 100
2019-04-03 00:00:00 4.4 4 Este 12 Sudeste 0 -- -- 100
2019-04-02 23:00:00 5.7 7 Sudeste 10 Sudeste 0 -- -- 98
2019-04-02 22:00:00 5.4 5 Este 8 Nordeste 0 -- -- 100
2019-04-02 21:00:00 5.5 5 Sudeste 12 Nordeste 0 -- -- 96
2019-04-02 20:00:00 7.5 3 Sudoeste 6 Sudoeste 0 -- -- 87
2019-04-02 19:00:00 8.3 0 Calma 24 Nordeste 1.6 -- -- 84
2019-04-02 18:00:00 8.4 15 Norte 29 Norte 0 -- -- 72
2019-04-02 17:00:00 11.6 12 Este 28 Este 0 -- -- 64
2019-04-02 16:00:00 10.8 9 Sudeste 24 Norte 0 -- -- 61
2019-04-02 15:00:00 14.4 12 Oeste 24 Oeste 0 -- -- 49
2019-04-02 14:00:00 11.9 10 Este 18 Sudeste 0 -- -- 70
2019-04-02 13:00:00 11 6 Sudeste 12 Este 0 -- -- 71
2019-04-02 12:00:00 10.5 7 Sudeste 12 Noroeste 0 -- -- 74
2019-04-02 11:00:00 7.6 10 Noroeste 19 Oeste 0 -- -- 86
2019-04-02 10:00:00 8.1 13 Oeste 21 Oeste 0 -- -- 100
2019-04-02 09:00:00 4.7 5 Sur 8 Sur 0 -- -- 100
2019-04-02 08:00:00 2.2 0 Calma 4 Oeste 0 -- -- 100
2019-04-02 07:00:00 3.5 0 Calma 3 Nordeste 0 -- -- 100
2019-04-02 06:00:00 2.7 0 Calma 6 Este 0 -- -- 100
2019-04-02 05:00:00 3.7 4 Sudeste 6 Nordeste 0 -- -- 100
2019-04-02 04:00:00 4.1 2 Este 5 Nordeste 0 -- -- 100
2019-04-02 03:00:00 3.8 0 Calma 5 Norte 0 -- -- 100
2019-04-02 02:00:00 3.6 0 Calma 7 Norte 0 -- -- 100
2019-04-02 01:00:00 4.6 0 Calma 5 Noroeste 0 -- -- 100
2019-04-02 00:00:00 5.7 0 Calma 10 Este 0 -- -- 100
2019-04-01 23:00:00 5.8 8 Este 10 Este 0 -- -- 100
2019-04-01 22:00:00 7.3 7 Este 13 Sudeste 0 -- -- 100
2019-04-01 21:00:00 7.7 10 Este 20 Este 0 -- -- 98
2019-04-01 20:00:00 8.9 12 Este 24 Este 0.2 -- -- 86
2019-04-01 19:00:00 11.4 4 Noroeste 10 Nordeste 0 -- -- 68
2019-04-01 18:00:00 12.4 7 Norte 22 Noroeste 2.2 -- -- 75
2019-04-01 17:00:00 5 12 Oeste 27 Oeste 0 -- -- 39
2019-04-01 16:00:00 12.3 10 Sudeste 23 Sudeste 0 -- -- 63
2019-04-01 15:00:00 12 9 Este 15 Sudeste 0 -- -- 64
2019-04-01 14:00:00 11.5 5 Nordeste 16 Sur 0 -- -- 69
2019-04-01 13:00:00 8.5 9 Sudoeste 14 Sudoeste 0 -- -- 83
2019-04-01 12:00:00 6.8 6 Sur 11 Sur 0 -- -- 97
2019-04-01 11:00:00 5.8 5 Sur 13 Sur 0 -- -- 100
2019-04-01 10:00:00 5.1 8 Sudeste 13 Sudeste 0 -- -- 100
2019-04-01 09:00:00 4.6 8 Sudeste 12 Sudeste 0 -- -- 100
2019-04-01 08:00:00 4.4 8 Sudeste 13 Sudeste 0 -- -- 100
2019-04-01 07:00:00 4.3 7 Este 13 Sudeste 0 -- -- 100
2019-04-01 06:00:00 4.2 8 Este 12 Este 0 -- -- 100
2019-04-01 05:00:00 4.2 7 Este 11 Este 0 -- -- 100
2019-04-01 04:00:00 4.1 6 Este 10 Nordeste 0 -- -- 100
2019-04-01 03:00:00 4 7 Este 14 Este 0 -- -- 100
2019-04-01 02:00:00 3.8 7 Nordeste 13 Nordeste 0 -- -- 100
2019-04-01 01:00:00 3.5 9 Nordeste 19 Nordeste 0 -- -- 100
2019-04-01 00:00:00 3.3 10 Nordeste 17 Nordeste 0.2 -- -- 100
2019-03-31 23:00:00 3.4 10 Nordeste 23 Este 0.2 -- -- 100
2019-03-31 22:00:00 4 15 Este 25 Este 0.6 -- -- 100
2019-03-31 21:00:00 4.5 11 Este 21 Este 1 -- -- 99
2019-03-31 20:00:00 5.1 13 Este 22 Este 0.8 -- -- 97
2019-03-31 19:00:00 6.2 13 Este 22 Este 0.8 -- -- 92
2019-03-31 18:00:00 6.9 13 Este 25 Este 0 -- -- 85
2019-03-31 17:00:00 7.3 10 Nordeste 22 Este 0.2 -- -- 72
2019-03-31 16:00:00 7.4 12 Este 29 Sudeste 0.2 -- -- 76
2019-03-31 15:00:00 10 14 Sudeste 35 Sudeste 0 -- -- 46
2019-03-31 14:00:00 12 17 Sudeste 28 Sudeste 0 -- -- 36
2019-03-31 13:00:00 11.7 18 Este 39 Este 0 -- -- 35
2019-03-31 12:00:00 11.2 22 Este 37 Este 0 -- -- 40
2019-03-31 11:00:00 10.2 17 Este 27 Este 0 -- -- 46
2019-03-31 10:00:00 8.1 13 Este 19 Este 0 -- -- 60
2019-03-31 09:00:00 4.8 10 Este 16 Este 0 -- -- 70
2019-03-31 08:00:00 3.7 8 Este 14 Este 0 -- -- 70
2019-03-31 07:00:00 3.8 8 Nordeste 13 Nordeste 0 -- -- 73
2019-03-31 06:00:00 3.6 9 Nordeste 14 Nordeste 0 -- -- 73
2019-03-31 05:00:00 2.8 7 Nordeste 11 Nordeste 0 -- -- 68
2019-03-31 03:00:00 1.9 5 Nordeste 9 Nordeste 0 -- -- 66
2019-03-31 01:00:00 4.3 6 Nordeste 13 Este 0 -- -- 56
2019-03-31 00:00:00 5.6 9 Este 15 Este 0 -- -- 50
2019-03-30 23:00:00 6.6 13 Este 19 Este 0 -- -- 46
2019-03-30 22:00:00 6.1 9 Este 15 Este 0 -- -- 45
2019-03-30 21:00:00 7.8 12 Este 23 Este 0 -- -- 40
2019-03-30 20:00:00 9.1 13 Este 26 Este 0 -- -- 40
2019-03-30 19:00:00 13 10 Este 25 Este 0 -- -- 32
2019-03-30 18:00:00 14.9 8 Sudeste 23 Este 0 -- -- 28
2019-03-30 17:00:00 15.4 11 Sudeste 24 Sudeste 0 -- -- 25
2019-03-30 16:00:00 15.1 11 Sur 26 Sudeste 0 -- -- 27
2019-03-30 15:00:00 14.4 15 Sudeste 28 Sudeste 0 -- -- 29
2019-03-30 14:00:00 14.5 7 Este 33 Sur 0 -- -- 32
2019-03-30 13:00:00 13.2 14 Este 33 Este 0 -- -- 36
2019-03-30 12:00:00 12.5 12 Sudeste 23 Sudeste 0 -- -- 37
2019-03-30 11:00:00 10.9 8 Sur 16 Sur 0 -- -- 43
2019-03-30 10:00:00 8.8 8 Sur 15 Sudeste 0 -- -- 46
2019-03-30 09:00:00 7.8 6 Este 12 Este 0 -- -- 51
2019-03-30 08:00:00 6.2 0 Calma 5 Este 0 -- -- 62
2019-03-30 07:00:00 -0.3 0 Calma 6 Sudeste 0 -- -- 82
2019-03-30 06:00:00 -0.2 6 Sudeste 7 Sudeste 0 -- -- 83
2019-03-30 05:00:00 0 2 Norte 9 Sur 0 -- -- 78
2019-03-30 04:00:00 2.2 8 Sur 13 Sur 0 -- -- 70
2019-03-30 03:00:00 2.3 6 Sudeste 12 Sur 0 -- -- 72
2019-03-30 02:00:00 3.8 7 Sur 12 Sur 0 -- -- 67
2019-03-30 01:00:00 3.1 5 Sudeste 9 Este 0 -- -- 74
2019-03-30 00:00:00 3.6 5 Sudeste 18 Sudeste 0 -- -- 72
2019-03-29 23:00:00 5.8 10 Sudeste 17 Sudeste 0 -- -- 65
2019-03-29 22:00:00 7.3 11 Este 19 Este 0 -- -- 61
2019-03-29 21:00:00 9 13 Este 24 Este 0 -- -- 48
2019-03-29 20:00:00 10.6 8 Sudeste 21 Sudeste 0 -- -- 41
2019-03-29 19:00:00 13.9 6 Sudoeste 19 Oeste 0 -- -- 28
2019-03-29 18:00:00 15.1 14 Sudoeste 26 Sudeste 0 -- -- 26
2019-03-29 17:00:00 16.7 8 Sudoeste 33 Sudeste 0 -- -- 24
2019-03-29 16:00:00 16 14 Sur 31 Sudeste 0 -- -- 26
2019-03-29 15:00:00 15.3 14 Sur 27 Sudeste 0 -- -- 28
2019-03-29 14:00:00 14.5 14 Sudeste 28 Sudeste 0 -- -- 31
2019-03-29 13:00:00 14.6 10 Sudeste 30 Sudoeste 0 -- -- 31
2019-03-29 12:00:00 13.4 12 Sudeste 27 Sudeste 0 -- -- 34
2019-03-29 11:00:00 11.9 13 Sur 23 Sudoeste 0 -- -- 37
2019-03-29 10:00:00 9.7 12 Sur 23 Sur 0 -- -- 42
2019-03-29 09:00:00 8.1 8 Sudeste 13 Sur 0 -- -- 48
2019-03-29 08:00:00 5.1 4 Este 7 Este 0 -- -- 64
2019-03-29 07:00:00 -1 0 Calma 8 Sudeste 0 -- -- 79
2019-03-29 06:00:00 -0.1 5 Sudeste 12 Sudeste 0 -- -- 75
2019-03-29 05:00:00 2.4 9 Sur 12 Sudeste 0 -- -- 65
2019-03-29 04:00:00 2.3 9 Sur 12 Sur 0 -- -- 70
2019-03-29 03:00:00 0.7 7 Sudeste 10 Nordeste 0 -- -- 83
2019-03-29 02:00:00 2.5 4 Este 8 Este 0 -- -- 79
2019-03-29 01:00:00 2.7 8 Este 13 Este 0 -- -- 76
2019-03-29 00:00:00 4 8 Este 14 Este 0 -- -- 70
2019-03-28 23:00:00 5.6 10 Este 15 Este 0 -- -- 62
2019-03-28 22:00:00 6.5 9 Este 14 Este 0 -- -- 56
2019-03-28 21:00:00 6.6 9 Este 15 Este 0 -- -- 55
2019-03-28 20:00:00 9.6 11 Nordeste 21 Nordeste 0 -- -- 46
2019-03-28 19:00:00 12.9 12 Nordeste 21 Nordeste 0 -- -- 32
2019-03-28 18:00:00 15.2 14 Este 24 Nordeste 0 -- -- 30
2019-03-28 17:00:00 15.8 14 Este 31 Este 0 -- -- 32
2019-03-28 16:00:00 16.5 10 Este 24 Nordeste 0 -- -- 30
2019-03-28 15:00:00 15.3 12 Este 23 Este 0 -- -- 28
2019-03-28 14:00:00 14.6 9 Este 22 Este 0 -- -- 31
2019-03-28 13:00:00 13.9 9 Este 22 Este 0 -- -- 31
2019-03-28 12:00:00 12.7 8 Nordeste 16 Este 0 -- -- 35
2019-03-28 11:00:00 11.1 8 Este 20 Este 0 -- -- 39
2019-03-28 10:00:00 9 11 Este 21 Este 0 -- -- 47
2019-03-28 09:00:00 7.2 8 Este 12 Este 0 -- -- 51
2019-03-28 08:00:00 4.6 5 Nordeste 13 Este 0 -- -- 59
2019-03-28 07:00:00 0.7 7 Nordeste 14 Este 0 -- -- 70
2019-03-28 06:00:00 0.8 10 Este 14 Nordeste 0 -- -- 67
2019-03-28 05:00:00 1 11 Este 14 Este 0 -- -- 67
2019-03-28 04:00:00 1 6 Nordeste 10 Nordeste 0 -- -- 64
2019-03-28 03:00:00 1.7 6 Nordeste 14 Nordeste 0 -- -- 60
2019-03-28 02:00:00 2.8 8 Nordeste 21 Nordeste 0 -- -- 55
2019-03-28 01:00:00 3.5 12 Nordeste 25 Nordeste 0 -- -- 52
2019-03-28 00:00:00 3.4 11 Nordeste 21 Nordeste 0 -- -- 45
2019-03-27 23:00:00 3.2 8 Nordeste 18 Nordeste 0 -- -- 44
2019-03-27 22:00:00 4.5 9 Nordeste 17 Nordeste 0 -- -- 45
2019-03-27 21:00:00 6.7 10 Nordeste 25 Nordeste 0 -- -- 38
2019-03-27 20:00:00 8.9 13 Nordeste 34 Nordeste 0 -- -- 31
2019-03-27 19:00:00 11.5 18 Nordeste 32 Norte 0 -- -- 26
2019-03-27 18:00:00 13.9 16 Nordeste 35 Nordeste 0 -- -- 23
2019-03-27 17:00:00 14.9 18 Nordeste 35 Nordeste 0 -- -- 23
2019-03-27 16:00:00 14.7 22 Norte 33 Nordeste 0 -- -- 23
2019-03-27 15:00:00 15.1 17 Nordeste 31 Nordeste 0 -- -- 22
2019-03-27 14:00:00 14.8 16 Nordeste 33 Este 0 -- -- 18
2019-03-27 13:00:00 14.2 15 Nordeste 27 Nordeste 0 -- -- 19
2019-03-27 12:00:00 13 17 Nordeste 28 Nordeste 0 -- -- 18
2019-03-27 11:00:00 11.4 13 Nordeste 24 Norte 0 -- -- 27
2019-03-27 10:00:00 9.8 11 Nordeste 20 Nordeste 0 -- -- 28
2019-03-27 09:00:00 7.7 7 Nordeste 12 Este 0 -- -- 34
2019-03-27 08:00:00 4.5 6 Este 9 Este 0 -- -- 45
2019-03-27 07:00:00 -0.4 4 Nordeste 12 Este 0 -- -- 55
2019-03-27 06:00:00 -0.6 8 Este 12 Este 0 -- -- 56
2019-03-27 05:00:00 -0.2 5 Sudeste 13 Este 0 -- -- 52
2019-03-27 04:00:00 1 11 Este 16 Nordeste 0 -- -- 49
2019-03-27 03:00:00 1.8 9 Nordeste 29 Nordeste 0 -- -- 47
2019-03-27 02:00:00 2.5 14 Nordeste 28 Nordeste 0 -- -- 45
2019-03-27 01:00:00 2.2 12 Nordeste 24 Nordeste 0 -- -- 42
2019-03-27 00:00:00 2.5 9 Norte 20 Nordeste 0 -- -- 40
2019-03-26 23:00:00 3.9 14 Nordeste 30 Nordeste 0 -- -- 37
2019-03-26 22:00:00 4.6 15 Nordeste 24 Nordeste 0 -- -- 34
2019-03-26 21:00:00 4.9 8 Nordeste 24 Nordeste 0 -- -- 32
2019-03-26 20:00:00 7.2 15 Nordeste 31 Nordeste 0 -- -- 25
2019-03-26 19:00:00 10.5 16 Nordeste 35 Norte 0 -- -- 20
2019-03-26 18:00:00 13.7 18 Nordeste 33 Nordeste 0 -- -- 15
2019-03-26 17:00:00 14.9 21 Nordeste 39 Norte 0 -- -- 17
2019-03-26 16:00:00 15.2 18 Nordeste 39 Nordeste 0 -- -- 18
2019-03-26 15:00:00 14.9 21 Nordeste 33 Este 0 -- -- 19
2019-03-26 14:00:00 14.1 19 Este 39 Este 0 -- -- 22
2019-03-26 13:00:00 13.7 16 Nordeste 31 Norte 0 -- -- 25
2019-03-26 12:00:00 11.6 18 Nordeste 33 Este 0 -- -- 30
2019-03-26 11:00:00 9.9 21 Este 33 Nordeste 0 -- -- 34
2019-03-26 10:00:00 7.9 18 Nordeste 29 Nordeste 0 -- -- 40
2019-03-26 09:00:00 5.9 15 Este 28 Nordeste 0 -- -- 44
2019-03-26 08:00:00 3.1 14 Nordeste 23 Nordeste 0 -- -- 55
2019-03-26 07:00:00 1.3 11 Nordeste 21 Nordeste 0 -- -- 61
2019-03-26 06:00:00 1 10 Norte 23 Norte 0 -- -- 69
2019-03-26 05:00:00 1.4 14 Nordeste 23 Norte 0 -- -- 70
2019-03-26 04:00:00 1.4 12 Nordeste 26 Norte 0 -- -- 76
2019-03-26 03:00:00 1.6 15 Norte 23 Norte 0 -- -- 78
2019-03-26 02:00:00 1.1 12 Nordeste 29 Norte 0 -- -- 78
2019-03-26 01:00:00 2 18 Nordeste 51 Norte 0 -- -- 73
2019-03-26 00:00:00 2.8 24 Norte 46 Nordeste 0 -- -- 71
2019-03-25 23:00:00 3.2 21 Nordeste 37 Nordeste 0 -- -- 68
2019-03-25 22:00:00 3.8 15 Nordeste 43 Nordeste 0 -- -- 62
2019-03-25 21:00:00 5.6 25 Nordeste 41 Norte 0 -- -- 54
2019-03-25 20:00:00 6.7 18 Norte 33 Norte 0 -- -- 46
2019-03-25 19:00:00 9 19 Norte 40 Norte 0 -- -- 42
2019-03-25 18:00:00 11.3 21 Norte 38 Nordeste 0 -- -- 39
2019-03-25 17:00:00 12.7 21 Norte 39 Nordeste 0 -- -- 28
2019-03-25 16:00:00 14.1 19 Norte 35 Norte 0 -- -- 29
2019-03-25 15:00:00 14.3 18 Norte 31 Norte 0 -- -- 30
2019-03-25 14:00:00 14.2 13 Nordeste 26 Norte 0 -- -- 35
2019-03-25 13:00:00 13.4 14 Norte 29 Norte 0 -- -- 38
2019-03-25 12:00:00 12.5 14 Nordeste 28 Nordeste 0 -- -- 44
2019-03-25 11:00:00 11 17 Norte 28 Norte 0 -- -- 45
2019-03-25 10:00:00 9.8 15 Nordeste 25 Nordeste 0 -- -- 49
2019-03-25 09:00:00 8.4 14 Norte 23 Norte 0 -- -- 54
2019-03-25 08:00:00 6.4 10 Nordeste 18 Nordeste 0 -- -- 59
2019-03-25 07:00:00 3.3 6 Norte 17 Norte 0 -- -- 70
2019-03-25 06:00:00 3.5 5 Norte 11 Norte 0 -- -- 70
2019-03-25 05:00:00 3.7 4 Noroeste 16 Nordeste 0 -- -- 69
2019-03-25 04:00:00 5.7 11 Norte 21 Norte 0 -- -- 63
2019-03-25 03:00:00 5.8 9 Nordeste 21 Nordeste 0 -- -- 60
2019-03-25 02:00:00 7.1 13 Norte 23 Nordeste 0 -- -- 53
2019-03-25 01:00:00 7.5 15 Nordeste 23 Norte 0 -- -- 50
2019-03-25 00:00:00 7.2 10 Nordeste 18 Norte 0 -- -- 50